Wetterdaten: aktuell Samstag, 23.02.2019 02:02
Datum Zeit Temperatur Feuchte A. Luftdruck Regen Wind Richtung Richtung Taupunkt Windchill Windben
23.02.2019 02:02 -2,2 C 82 % 1040,8 hPa 0,0 l/m 12,6 km/h (3 Bft) N-NW 333 -4,8 C -6,6 C 16,1 km/h (3 Bft)
23.02.2019 02:00 -2,3 C 82 % 1040,8 hPa 0,0 l/m 5,4 km/h (2 Bft) N-NW 338 -4,9 C -4,4 C 8,0 km/h (2 Bft)
23.02.2019 01:59 -2,3 C 82 % 1040,9 hPa 0,0 l/m 7,0 km/h (2 Bft) N-NW 338 -4,9 C -5,1 C 9,7 km/h (2 Bft)
23.02.2019 01:58 -2,3 C 82 % 1040,8 hPa 0,0 l/m 7,0 km/h (2 Bft) N-NW 339 -4,9 C -5,1 C 9,7 km/h (2 Bft)
23.02.2019 01:57 -2,3 C 82 % 1040,8 hPa 0,0 l/m 6,3 km/h (2 Bft) NW 314 -4,9 C -4,8 C 9,7 km/h (2 Bft)
23.02.2019 01:56 -2,4 C 82 % 1040,8 hPa 0,0 l/m 4,7 km/h (1 Bft) NW 313 -5,0 C -4,2 C 8,0 km/h (2 Bft)
23.02.2019 01:55 -2,4 C 82 % 1040,8 hPa 0,0 l/m 7,8 km/h (2 Bft) NW 313 -5,0 C -5,5 C 9,7 km/h (2 Bft)
23.02.2019 01:54 -2,4 C 82 % 1040,8 hPa 0,0 l/m 8,4 km/h (2 Bft) NW 312 -5,0 C -5,7 C 9,7 km/h (2 Bft)
23.02.2019 01:53 -2,3 C 82 % 1040,7 hPa 0,0 l/m 8,1 km/h (2 Bft) NW 312 -4,9 C -5,5 C 9,7 km/h (2 Bft)
23.02.2019 01:52 -2,3 C 82 % 1040,7 hPa 0,0 l/m 6,1 km/h (2 Bft) NW 311 -4,9 C -4,7 C 8,0 km/h (2 Bft)
23.02.2019 01:51 -2,4 C 82 % 1040,7 hPa 0,0 l/m 6,8 km/h (2 Bft) NW 311 -5,0 C -5,1 C 9,7 km/h (2 Bft)
23.02.2019 01:50 -2,4 C 82 % 1040,6 hPa 0,0 l/m 7,7 km/h (2 Bft) NW 311 -5,0 C -5,5 C 9,7 km/h (2 Bft)
23.02.2019 01:49 -2,4 C 82 % 1040,7 hPa 0,0 l/m 8,9 km/h (2 Bft) NW 310 -5,0 C -5,9 C 11,3 km/h (2 Bft)
23.02.2019 01:48 -2,4 C 82 % 1040,7 hPa 0,0 l/m 8,3 km/h (2 Bft) NW 309 -5,0 C -5,7 C 11,3 km/h (2 Bft)
23.02.2019 01:47 -2,4 C 82 % 1040,7 hPa 0,0 l/m 8,0 km/h (2 Bft) NW 309 -5,0 C -5,6 C 9,7 km/h (2 Bft)
23.02.2019 01:46 -2,4 C 82 % 1040,7 hPa 0,0 l/m 7,7 km/h (2 Bft) NW 311 -5,0 C -5,5 C 9,7 km/h (2 Bft)
23.02.2019 01:45 -2,4 C 82 % 1040,6 hPa 0,0 l/m 9,4 km/h (2 Bft) NW 312 -5,0 C -6,0 C 11,3 km/h (2 Bft)
23.02.2019 01:44 -2,4 C 82 % 1040,6 hPa 0,0 l/m 8,7 km/h (2 Bft) NW 310 -5,0 C -5,8 C 11,3 km/h (2 Bft)
23.02.2019 01:43 -2,4 C 82 % 1040,6 hPa 0,0 l/m 9,9 km/h (2 Bft) NW 314 -5,0 C -6,2 C 11,3 km/h (2 Bft)
23.02.2019 01:42 -2,4 C 82 % 1040,6 hPa 0,0 l/m 9,9 km/h (2 Bft) NW 313 -5,0 C -6,2 C 12,9 km/h (3 Bft)
23.02.2019 01:41 -2,4 C 82 % 1040,6 hPa 0,0 l/m 9,1 km/h (2 Bft) NW 312 -5,0 C -5,9 C 11,3 km/h (2 Bft)
23.02.2019 01:40 -2,5 C 83 % 1040,6 hPa 0,0 l/m 11,3 km/h (2 Bft) NW 310 -5,0 C -6,7 C 12,9 km/h (3 Bft)
23.02.2019 01:39 -2,4 C 82 % 1040,6 hPa 0,0 l/m 11,3 km/h (2 Bft) NW 316 -5,0 C -6,5 C 12,9 km/h (3 Bft)
23.02.2019 01:38 -2,4 C 82 % 1040,6 hPa 0,0 l/m 10,7 km/h (2 Bft) NW 313 -5,0 C -6,4 C 14,5 km/h (3 Bft)
23.02.2019 01:37 -2,4 C 82 % 1040,5 hPa 0,0 l/m 10,9 km/h (2 Bft) NW 304 -5,0 C -6,4 C 12,9 km/h (3 Bft)
23.02.2019 01:36 -2,4 C 82 % 1040,6 hPa 0,0 l/m 9,2 km/h (2 Bft) W-NW 302 -5,0 C -5,9 C 11,3 km/h (2 Bft)
23.02.2019 01:35 -2,4 C 82 % 1040,6 hPa 0,0 l/m 9,7 km/h (2 Bft) W-NW 299 -5,0 C -6,1 C 12,9 km/h (3 Bft)
23.02.2019 01:34 -2,4 C 82 % 1040,6 hPa 0,0 l/m 11,1 km/h (2 Bft) W-NW 298 -5,0 C -6,5 C 12,9 km/h (3 Bft)
23.02.2019 01:33 -2,4 C 82 % 1040,6 hPa 0,0 l/m 8,9 km/h (2 Bft) W-NW 303 -5,0 C -5,9 C 11,3 km/h (2 Bft)
23.02.2019 01:32 -2,3 C 81 % 1040,5 hPa 0,0 l/m 8,0 km/h (2 Bft) W-NW 298 -5,1 C -5,4 C 11,3 km/h (2 Bft)
23.02.2019 01:31 -2,3 C 81 % 1040,5 hPa 0,0 l/m 8,9 km/h (2 Bft) W-NW 298 -5,1 C -5,7 C 9,7 km/h (2 Bft)
23.02.2019 01:30 -2,3 C 81 % 1040,5 hPa 0,0 l/m 8,8 km/h (2 Bft) W-NW 298 -5,1 C -5,7 C 11,3 km/h (2 Bft)
23.02.2019 01:28 -2,1 C 81 % 1040,5 hPa 0,0 l/m 7,6 km/h (2 Bft) W-NW 299 -4,9 C -5,1 C 9,7 km/h (2 Bft)
23.02.2019 01:27 -2,1 C 81 % 1040,5 hPa 0,0 l/m 10,5 km/h (2 Bft) NW 309 -4,9 C -6,0 C 14,5 km/h (3 Bft)
23.02.2019 01:26 -2,1 C 82 % 1040,5 hPa 0,0 l/m 9,9 km/h (2 Bft) NW 322 -4,7 C -5,8 C 12,9 km/h (3 Bft)
23.02.2019 01:25 -2,1 C 82 % 1040,5 hPa 0,0 l/m 10,2 km/h (2 Bft) NW 324 -4,7 C -5,9 C 12,9 km/h (3 Bft)
23.02.2019 01:24 -2,2 C 82 % 1040,5 hPa 0,0 l/m 8,7 km/h (2 Bft) NW 323 -4,8 C -5,6 C 11,3 km/h (2 Bft)
23.02.2019 01:23 -2,2 C 82 % 1040,5 hPa 0,0 l/m 8,1 km/h (2 Bft) NW 324 -4,8 C -5,4 C 9,7 km/h (2 Bft)
23.02.2019 01:21 -2,2 C 82 % 1040,4 hPa 0,0 l/m 9,1 km/h (2 Bft) NW 323 -4,8 C -5,7 C 11,3 km/h (2 Bft)
23.02.2019 01:20 -2,2 C 82 % 1040,4 hPa 0,0 l/m 8,6 km/h (2 Bft) NW 325 -4,8 C -5,5 C 11,3 km/h (2 Bft)
23.02.2019 01:19 -2,2 C 82 % 1040,4 hPa 0,0 l/m 8,9 km/h (2 Bft) NW 322 -4,8 C -5,6 C 11,3 km/h (2 Bft)
23.02.2019 01:18 -2,3 C 82 % 1040,4 hPa 0,0 l/m 8,6 km/h (2 Bft) NW 312 -4,9 C -5,6 C 11,3 km/h (2 Bft)
23.02.2019 01:17 -2,3 C 82 % 1040,4 hPa 0,0 l/m 8,5 km/h (2 Bft) NW 309 -4,9 C -5,6 C 9,7 km/h (2 Bft)
23.02.2019 01:16 -2,3 C 82 % 1040,4 hPa 0,0 l/m 8,2 km/h (2 Bft) NW 314 -4,9 C -5,5 C 9,7 km/h (2 Bft)
23.02.2019 01:15 -2,3 C 82 % 1040,4 hPa 0,0 l/m 10,1 km/h (2 Bft) NW 313 -4,9 C -6,1 C 12,9 km/h (3 Bft)
23.02.2019 01:14 -2,3 C 82 % 1040,4 hPa 0,0 l/m 8,2 km/h (2 Bft) NW 311 -4,9 C -5,5 C 9,7 km/h (2 Bft)
23.02.2019 01:13 -2,3 C 82 % 1040,4 hPa 0,0 l/m 8,5 km/h (2 Bft) NW 311 -4,9 C -5,6 C 9,7 km/h (2 Bft)
23.02.2019 01:12 -2,3 C 81 % 1040,4 hPa 0,0 l/m 8,0 km/h (2 Bft) NW 311 -5,1 C -5,4 C 9,7 km/h (2 Bft)
23.02.2019 01:11 -2,3 C 81 % 1040,3 hPa 0,0 l/m 9,3 km/h (2 Bft) NW 310 -5,1 C -5,9 C 9,7 km/h (2 Bft)
23.02.2019 01:10 -2,2 C 81 % 1040,3 hPa 0,0 l/m 9,2 km/h (2 Bft) NW 310 -5,0 C -5,7 C 11,3 km/h (2 Bft)
23.02.2019 01:09 -2,2 C 81 % 1040,3 hPa 0,0 l/m 9,4 km/h (2 Bft) NW 315 -5,0 C -5,8 C 11,3 km/h (2 Bft)
23.02.2019 01:08 -2,2 C 81 % 1040,4 hPa 0,0 l/m 10,4 km/h (2 Bft) NW 316 -5,0 C -6,1 C 12,9 km/h (3 Bft)
23.02.2019 01:07 -2,1 C 81 % 1040,4 hPa 0,0 l/m 10,0 km/h (2 Bft) NW 311 -4,9 C -5,8 C 11,3 km/h (2 Bft)
23.02.2019 01:06 -2,1 C 81 % 1040,4 hPa 0,0 l/m 8,8 km/h (2 Bft) NW 317 -4,9 C -5,5 C 9,7 km/h (2 Bft)
23.02.2019 01:05 -2,1 C 81 % 1040,3 hPa 0,0 l/m 11,5 km/h (2 Bft) NW 317 -4,9 C -6,2 C 14,5 km/h (3 Bft)
23.02.2019 01:04 -2,1 C 81 % 1040,4 hPa 0,0 l/m 10,5 km/h (2 Bft) NW 312 -4,9 C -6,0 C 12,9 km/h (3 Bft)
23.02.2019 01:03 -2,0 C 81 % 1040,4 hPa 0,0 l/m 11,0 km/h (2 Bft) N-NW 330 -4,8 C -6,0 C 12,9 km/h (3 Bft)
23.02.2019 01:02 -2,1 C 81 % 1040,4 hPa 0,0 l/m 11,8 km/h (2 Bft) N-NW 338 -4,9 C -6,3 C 16,1 km/h (3 Bft)
23.02.2019 01:00 -2,1 C 81 % 1040,4 hPa 0,0 l/m 10,1 km/h (2 Bft) NW 311 -4,9 C -5,9 C 16,1 km/h (3 Bft)
23.02.2019 00:59 -2,1 C 81 % 1040,4 hPa 0,0 l/m 9,7 km/h (2 Bft) NW 324 -4,9 C -5,7 C 12,9 km/h (3 Bft)
23.02.2019 00:58 -2,1 C 80 % 1040,4 hPa 0,0 l/m 8,9 km/h (2 Bft) NW 322 -5,1 C -5,5 C 11,3 km/h (2 Bft)
23.02.2019 00:57 -2,0 C 80 % 1040,4 hPa 0,0 l/m 10,4 km/h (2 Bft) NW 317 -5,0 C -5,8 C 12,9 km/h (3 Bft)
23.02.2019 00:56 -1,9 C 80 % 1040,4 hPa 0,0 l/m 9,2 km/h (2 Bft) NW 306 -4,9 C -5,4 C 11,3 km/h (2 Bft)
23.02.2019 00:55 -1,9 C 80 % 1040,5 hPa 0,0 l/m 8,4 km/h (2 Bft) NW 324 -4,9 C -5,1 C 9,7 km/h (2 Bft)
23.02.2019 00:54 -1,8 C 80 % 1040,4 hPa 0,0 l/m 8,6 km/h (2 Bft) NW 325 -4,8 C -5,0 C 9,7 km/h (2 Bft)
23.02.2019 00:53 -1,8 C 80 % 1040,4 hPa 0,0 l/m 9,0 km/h (2 Bft) N-NW 332 -4,8 C -5,2 C 12,9 km/h (3 Bft)
23.02.2019 00:52 -1,8 C 80 % 1040,4 hPa 0,0 l/m 8,7 km/h (2 Bft) NW 319 -4,8 C -5,1 C 11,3 km/h (2 Bft)
23.02.2019 00:51 -1,8 C 80 % 1040,4 hPa 0,0 l/m 10,8 km/h (2 Bft) NW 321 -4,8 C -5,7 C 14,5 km/h (3 Bft)
23.02.2019 00:50 -1,7 C 80 % 1040,4 hPa 0,0 l/m 9,7 km/h (2 Bft) NW 309 -4,7 C -5,3 C 12,9 km/h (3 Bft)
23.02.2019 00:49 -1,7 C 80 % 1040,3 hPa 0,0 l/m 9,2 km/h (2 Bft) N-NW 336 -4,7 C -5,1 C 12,9 km/h (3 Bft)
23.02.2019 00:48 -1,7 C 80 % 1040,4 hPa 0,0 l/m 10,1 km/h (2 Bft) NW 321 -4,7 C -5,4 C 12,9 km/h (3 Bft)
23.02.2019 00:47 -1,8 C 80 % 1040,3 hPa 0,0 l/m 8,0 km/h (2 Bft) N-NW 330 -4,8 C -4,9 C 12,9 km/h (3 Bft)
23.02.2019 00:46 -1,7 C 80 % 1040,3 hPa 0,0 l/m 9,0 km/h (2 Bft) N 355 -4,7 C -5,1 C 11,3 km/h (2 Bft)
23.02.2019 00:45 -1,7 C 80 % 1040,3 hPa 0,0 l/m 9,7 km/h (2 Bft) NW 323 -4,7 C -5,3 C 16,1 km/h (3 Bft)
23.02.2019 00:44 -1,8 C 80 % 1040,3 hPa 0,0 l/m 9,4 km/h (2 Bft) N 355 -4,8 C -5,3 C 14,5 km/h (3 Bft)
23.02.2019 00:43 -1,8 C 80 % 1040,4 hPa 0,0 l/m 8,2 km/h (2 Bft) N-NW 346 -4,8 C -4,9 C 11,3 km/h (2 Bft)
23.02.2019 00:42 -1,8 C 81 % 1040,3 hPa 0,0 l/m 11,1 km/h (2 Bft) N-NW 342 -4,6 C -5,8 C 16,1 km/h (3 Bft)
23.02.2019 00:41 -1,8 C 81 % 1040,4 hPa 0,0 l/m 8,4 km/h (2 Bft) N-NW 345 -4,6 C -5,0 C 12,9 km/h (3 Bft)
23.02.2019 00:40 -1,8 C 80 % 1040,3 hPa 0,0 l/m 11,4 km/h (2 Bft) N-NW 332 -4,8 C -5,8 C 17,7 km/h (3 Bft)
23.02.2019 00:39 -1,8 C 80 % 1040,4 hPa 0,0 l/m 10,7 km/h (2 Bft) N-NW 333 -4,8 C -5,7 C 14,5 km/h (3 Bft)
23.02.2019 00:38 -1,8 C 80 % 1040,4 hPa 0,0 l/m 8,7 km/h (2 Bft) N-NW 330 -4,8 C -5,1 C 12,9 km/h (3 Bft)
23.02.2019 00:37 -1,8 C 80 % 1040,4 hPa 0,0 l/m 7,9 km/h (2 Bft) NW 319 -4,8 C -4,8 C 12,9 km/h (3 Bft)
23.02.2019 00:36 -1,7 C 80 % 1040,3 hPa 0,0 l/m 10,6 km/h (2 Bft) NW 322 -4,7 C -5,5 C 12,9 km/h (3 Bft)
23.02.2019 00:35 -1,7 C 80 % 1040,3 hPa 0,0 l/m 9,1 km/h (2 Bft) NW 306 -4,7 C -5,1 C 14,5 km/h (3 Bft)
23.02.2019 00:34 -1,7 C 80 % 1040,3 hPa 0,0 l/m 11,7 km/h (2 Bft) NW 321 -4,7 C -5,8 C 14,5 km/h (3 Bft)
23.02.2019 00:33 -1,7 C 80 % 1040,3 hPa 0,0 l/m 8,4 km/h (2 Bft) N-NW 327 -4,7 C -4,9 C 14,5 km/h (3 Bft)
23.02.2019 00:32 -1,6 C 80 % 1040,3 hPa 0,0 l/m 10,1 km/h (2 Bft) N-NW 333 -4,6 C -5,3 C 12,9 km/h (3 Bft)
23.02.2019 00:31 -1,6 C 80 % 1040,3 hPa 0,0 l/m 10,0 km/h (2 Bft) N-NW 333 -4,6 C -5,2 C 12,9 km/h (3 Bft)
23.02.2019 00:30 -1,6 C 80 % 1040,3 hPa 0,0 l/m 13,4 km/h (3 Bft) N-NW 339 -4,6 C -6,1 C 17,7 km/h (3 Bft)
23.02.2019 00:29 -1,6 C 80 % 1040,3 hPa 0,0 l/m 12,1 km/h (2 Bft) N-NW 344 -4,6 C -5,8 C 16,1 km/h (3 Bft)
23.02.2019 00:28 -1,6 C 80 % 1040,3 hPa 0,0 l/m 10,6 km/h (2 Bft) N-NW 340 -4,6 C -5,4 C 16,1 km/h (3 Bft)
23.02.2019 00:27 -1,6 C 80 % 1040,3 hPa 0,0 l/m 9,2 km/h (2 Bft) N-NW 337 -4,6 C -5,0 C 12,9 km/h (3 Bft)
23.02.2019 00:26 -1,6 C 80 % 1040,3 hPa 0,0 l/m 10,7 km/h (2 Bft) N-NW 348 -4,6 C -5,4 C 16,1 km/h (3 Bft)
23.02.2019 00:25 -1,6 C 80 % 1040,3 hPa 0,0 l/m 11,1 km/h (2 Bft) N-NW 345 -4,6 C -5,5 C 16,1 km/h (3 Bft)
23.02.2019 00:24 -1,6 C 80 % 1040,4 hPa 0,0 l/m 11,5 km/h (2 Bft) N 355 -4,6 C -5,6 C 16,1 km/h (3 Bft)
23.02.2019 00:23 -1,6 C 80 % 1040,4 hPa 0,0 l/m 12,2 km/h (2 Bft) NW 325 -4,6 C -5,8 C 19,3 km/h (3 Bft)
23.02.2019 00:22 -1,5 C 80 % 1040,4 hPa 0,0 l/m 9,7 km/h (2 Bft) N-NW 331 -4,5 C -5,0 C 14,5 km/h (3 Bft)
23.02.2019 00:21 -1,5 C 79 % 1040,4 hPa 0,0 l/m 11,5 km/h (2 Bft) N-NW 328 -4,7 C -5,5 C 16,1 km/h (3 Bft)
23.02.2019 00:20 -1,5 C 79 % 1040,2 hPa 0,0 l/m 9,8 km/h (2 Bft) N 349 -4,7 C -5,1 C 12,9 km/h (3 Bft)
23.02.2019 00:19 -1,4 C 79 % 1040,3 hPa 0,0 l/m 9,1 km/h (2 Bft) N-NW 336 -4,6 C -4,7 C 12,9 km/h (3 Bft)
_ Min-Zeit 01:39 13:57 03:57 - 23:10 - - 01:11 01:40 23:10
Minimum _ -2,5 C 73 % 1028,1 hPa - 2,4 km/h (1 Bft) - - -5,1 C -6,7 C 3,2 km/h (1 Bft)
_ Max-Zeit 13:55 03:31 01:59 03:12 10:27 - - 12:50 12:50 21:23
Maximum _ 8,8 C 92 % 1040,9 hPa 0,2 l/m 30,2 km/h
NW (5 Bft)
- - 5,2 C 7,7 C 43,5 km/h
N (6 Bft)
Durchschnitt _ 4,4 C 84 % 1033,6 hPa #0,4 l/m 13,4 km/h (3 Bft) NW - 1,9 C 1,4 C 18,1 km/h (3 Bft)
Wetterstation Eggerszell